Time;durP1;ratioP1;P1;durP2;ratioP2;P2;SDS_P1;SDS_P2;PMS_P1;PMS_P2;Temp;Humidity;BMP_temperature;BMP_pressure;BME280_temperature;BME280_humidity;BME280_pressure;Samples;Min_cycle;Max_cycle;Signal;HPM_P1;HPM_P2
2021/12/16 00:05:31;;;;;;;9.00;4.68;;;22.70;99.90;;;;;;4995191;28;20451;-65
2021/12/16 00:08:07;;;;;;;11.68;4.20;;;22.80;99.90;;;;;;4995184;28;20030;-65
2021/12/16 00:10:42;;;;;;;11.98;4.72;;;22.70;99.90;;;;;;4992747;28;20030;-64
2021/12/16 00:34:59;;;;;;;13.38;5.55;;;22.30;99.90;;;;;;4994815;28;20056;-64
2021/12/16 00:37:28;;;;;;;13.20;6.00;;;22.30;99.90;;;;;;4994723;28;20027;-63
2021/12/16 00:39:55;;;;;;;14.20;5.97;;;22.40;99.90;;;;;;4994522;28;20034;-64
2021/12/16 00:45:30;;;;;;;11.95;5.50;;;22.50;99.90;;;;;;4994943;28;20387;-64
2021/12/16 00:48:01;;;;;;;15.07;5.80;;;22.60;99.90;;;;;;4994289;28;20104;-64
2021/12/16 00:55:50;;;;;;;14.80;6.15;;;22.90;99.90;;;;;;4994550;28;20073;-64
2021/12/16 00:58:22;;;;;;;11.10;5.63;;;22.70;99.90;;;;;;4994487;28;20027;-65
2021/12/16 01:01:02;;;;;;;13.40;5.35;;;22.60;99.90;;;;;;4993411;28;20050;-64
2021/12/16 01:03:39;;;;;;;12.63;5.70;;;22.50;99.90;;;;;;4994066;28;20046;-64
2021/12/16 01:09:50;;;;;;;10.65;5.38;;;23.20;99.90;;;;;;4994258;28;20034;-64
2021/12/16 01:33:59;;;;;;;12.65;6.63;;;23.00;99.90;;;;;;4994104;28;19952;-65
2021/12/16 01:40:00;;;;;;;16.25;6.60;;;23.20;99.90;;;;;;4993986;28;20546;-64
2021/12/16 01:50:15;;;;;;;11.70;5.80;;;24.30;99.90;;;;;;4993877;28;20109;-64
2021/12/16 01:55:36;;;;;;;12.52;4.95;;;23.90;99.90;;;;;;4994024;28;20022;-65
2021/12/16 01:58:18;;;;;;;10.23;5.80;;;23.50;99.90;;;;;;4993656;28;20031;-65
2021/12/16 02:01:15;;;;;;;13.98;6.07;;;23.60;99.90;;;;;;4993856;28;20030;-65
2021/12/16 02:03:54;;;;;;;9.85;5.63;;;23.90;99.90;;;;;;4993560;28;20046;-66
2021/12/16 02:09:19;;;;;;;9.82;5.40;;;23.90;99.90;;;;;;4993472;28;20040;-65
2021/12/16 02:28:47;;;;;;;11.88;4.30;;;23.90;99.90;;;;;;4997110;28;19912;-64
2021/12/16 02:34:20;;;;;;;10.02;4.68;;;24.10;99.90;;;;;;4997103;28;20541;-65
2021/12/16 02:36:43;;;;;;;12.27;3.42;;;23.80;99.90;;;;;;4996714;28;20058;-64
2021/12/16 02:39:29;;;;;;;12.93;4.53;;;23.40;99.90;;;;;;4996686;28;20077;-64
2021/12/16 02:42:20;;;;;;;13.23;4.32;;;23.10;99.90;;;;;;4996605;28;20026;-64
2021/12/16 02:50:25;;;;;;;14.27;4.00;;;23.00;99.90;;;;;;4996598;28;20455;-65
2021/12/16 02:52:54;;;;;;;9.43;3.85;;;23.20;99.90;;;;;;4996615;28;20038;-64
2021/12/16 02:55:22;;;;;;;14.50;3.45;;;23.40;99.90;;;;;;4997031;28;20109;-64
2021/12/16 02:57:59;;;;;;;14.50;4.15;;;23.50;99.90;;;;;;4996446;28;20031;-65
2021/12/16 03:00:33;;;;;;;11.07;3.65;;;23.90;99.90;;;;;;4996266;28;20036;-65
2021/12/16 03:03:01;;;;;;;8.27;3.78;;;24.10;99.90;;;;;;4996010;28;20053;-66
2021/12/16 03:05:28;;;;;;;11.63;3.55;;;24.10;99.90;;;;;;4997248;28;20030;-65
2021/12/16 03:07:56;;;;;;;15.73;3.78;;;23.50;99.90;;;;;;4996226;28;20030;-65
2021/12/16 03:13:02;;;;;;;9.07;3.45;;;23.20;99.90;;;;;;4996208;28;20041;-65
2021/12/16 03:20:54;;;;;;;9.90;3.30;;;23.30;99.90;;;;;;4996002;28;20026;-65
2021/12/16 03:36:50;;;;;;;12.43;3.80;;;23.70;99.90;;;;;;4995676;28;20448;-65
2021/12/16 03:39:21;;;;;;;14.20;4.38;;;23.70;99.90;;;;;;4995631;28;20109;-66
2021/12/16 03:41:48;;;;;;;10.10;4.13;;;23.20;99.90;;;;;;4995616;28;20041;-65
2021/12/16 03:44:18;;;;;;;11.82;3.70;;;23.00;99.90;;;;;;4994232;28;20392;-65
2021/12/16 03:46:52;;;;;;;12.90;4.75;;;23.00;99.90;;;;;;4995420;28;20026;-65
2021/12/16 03:49:24;;;;;;;7.45;3.13;;;23.00;99.90;;;;;;4995374;28;20023;-66
2021/12/16 03:51:56;;;;;;;10.38;3.17;;;23.40;99.90;;;;;;4995387;28;20105;-65
2021/12/16 03:54:29;;;;;;;9.27;3.28;;;23.30;99.90;;;;;;4995435;28;20486;-65
2021/12/16 03:56:57;;;;;;;7.85;3.00;;;22.90;99.90;;;;;;4995240;28;20022;-66
2021/12/16 03:59:28;;;;;;;10.65;3.65;;;22.60;99.90;;;;;;4995436;28;20033;-66
2021/12/16 04:01:59;;;;;;;12.82;3.33;;;22.40;99.90;;;;;;4994992;28;20440;-65
2021/12/16 04:04:27;;;;;;;10.48;3.42;;;22.30;99.90;;;;;;4995179;28;20026;-65
2021/12/16 04:06:54;;;;;;;13.23;3.72;;;22.10;99.90;;;;;;4995267;28;20022;-65
2021/12/16 04:09:24;;;;;;;10.45;3.60;;;22.10;99.90;;;;;;4995191;28;20105;-66
2021/12/16 04:12:03;;;;;;;7.68;3.00;;;22.00;99.90;;;;;;4995063;28;20033;-66
2021/12/16 04:14:31;;;;;;;10.50;3.15;;;21.80;99.90;;;;;;4994888;28;20387;-66
2021/12/16 04:17:02;;;;;;;14.85;4.68;;;21.40;99.90;;;;;;4994731;28;20026;-65
2021/12/16 04:19:33;;;;;;;13.27;3.45;;;21.20;99.90;;;;;;4995054;28;20121;-65
2021/12/16 04:22:06;;;;;;;14.23;3.65;;;21.10;99.90;;;;;;4995002;28;20383;-66
2021/12/16 04:24:34;;;;;;;10.73;3.10;;;20.90;99.90;;;;;;4994702;28;20041;-65
2021/12/16 04:27:02;;;;;;;10.82;4.32;;;20.90;99.90;;;;;;4994818;28;20026;-65
2021/12/16 04:29:30;;;;;;;13.80;4.40;;;20.90;99.90;;;;;;4994709;28;20126;-65
2021/12/16 04:31:59;;;;;;;15.20;3.78;;;21.00;99.90;;;;;;4994753;28;20460;-65
2021/12/16 04:34:27;;;;;;;10.80;3.75;;;21.10;99.90;;;;;;4994505;28;20022;-64
2021/12/16 04:36:55;;;;;;;24.40;4.38;;;21.20;99.90;;;;;;4994474;28;20399;-63
2021/12/16 04:39:26;;;;;;;12.98;3.40;;;21.30;99.90;;;;;;4994474;28;20022;-63
2021/12/16 04:41:55;;;;;;;13.30;3.72;;;21.50;99.90;;;;;;4994657;28;20476;-64
2021/12/16 04:44:23;;;;;;;13.30;3.42;;;21.50;99.90;;;;;;4994482;28;20464;-64
2021/12/16 04:46:51;;;;;;;10.88;3.22;;;21.50;99.90;;;;;;4994544;28;20369;-64
2021/12/16 04:49:19;;;;;;;11.45;3.08;;;21.50;99.90;;;;;;4994523;28;20019;-64
2021/12/16 04:51:53;;;;;;;9.10;2.75;;;21.50;99.90;;;;;;4994566;28;20022;-65
2021/12/16 04:54:23;;;;;;;11.57;3.40;;;21.60;99.90;;;;;;4994432;28;20380;-65
2021/12/16 04:56:53;;;;;;;11.05;2.92;;;21.30;99.90;;;;;;4994194;28;20031;-65
2021/12/16 04:59:22;;;;;;;7.95;2.42;;;21.00;99.90;;;;;;4994344;28;20023;-65
2021/12/16 05:01:58;;;;;;;10.82;3.35;;;20.50;99.90;;;;;;4994126;28;20483;-65
2021/12/16 05:04:25;;;;;;;16.23;3.47;;;20.20;99.90;;;;;;4994065;28;20031;-66
2021/12/16 05:06:53;;;;;;;14.85;3.85;;;20.00;99.90;;;;;;4994153;28;20033;-65
2021/12/16 05:12:17;;;;;;;17.60;3.38;;;19.80;99.90;;;;;;4994293;28;20031;-64
2021/12/16 05:14:46;;;;;;;10.55;3.47;;;19.70;99.90;;;;;;4994382;28;20034;-65
2021/12/16 05:17:31;;;;;;;15.77;4.43;;;19.80;99.90;;;;;;4993919;28;20033;-63
2021/12/16 05:20:04;;;;;;;15.07;3.53;;;19.70;99.90;;;;;;4993934;28;20538;-66
2021/12/16 05:25:35;;;;;;;9.10;2.90;;;19.60;99.90;;;;;;4994472;28;20081;-66
2021/12/16 05:28:04;;;;;;;15.35;2.90;;;19.60;99.90;;;;;;4994221;28;20282;-67
2021/12/16 05:30:32;;;;;;;17.67;3.75;;;19.50;99.90;;;;;;4994095;28;20105;-67
2021/12/16 05:33:00;;;;;;;12.65;3.88;;;19.50;99.90;;;;;;4993825;28;20026;-66
2021/12/16 05:35:28;;;;;;;10.13;3.25;;;19.50;99.90;;;;;;4993779;28;20026;-67
2021/12/16 05:37:56;;;;;;;9.48;2.28;;;19.50;99.90;;;;;;4993881;28;20034;-66
2021/12/16 05:40:26;;;;;;;14.30;3.08;;;19.50;99.90;;;;;;5002335;28;20020;-68
2021/12/16 05:42:56;;;;;;;15.73;3.15;;;19.40;99.90;;;;;;4992265;28;20404;-66
2021/12/16 05:45:25;;;;;;;18.88;2.65;;;19.40;99.90;;;;;;4992422;28;20113;-67
2021/12/16 05:47:54;;;;;;;15.00;2.60;;;19.50;99.90;;;;;;4994591;28;20487;-66
2021/12/16 05:50:24;;;;;;;19.67;3.70;;;19.50;99.90;;;;;;4995454;28;20074;-65
2021/12/16 05:52:52;;;;;;;12.70;3.55;;;19.50;99.90;;;;;;4995596;28;20038;-66
2021/12/16 05:55:20;;;;;;;18.23;3.92;;;19.60;99.90;;;;;;4995032;28;20030;-66
2021/12/16 05:57:49;;;;;;;10.68;2.50;;;19.60;99.90;;;;;;4995560;28;20032;-66
2021/12/16 06:00:28;;;;;;;10.77;3.05;;;19.50;99.90;;;;;;4995203;28;20108;-67
2021/12/16 06:02:55;;;;;;;13.18;2.33;;;19.50;99.90;;;;;;4994632;28;20046;-67
2021/12/16 06:05:22;;;;;;;12.52;3.28;;;19.40;99.90;;;;;;4995382;28;20387;-67
2021/12/16 06:07:50;;;;;;;15.75;2.92;;;19.40;99.90;;;;;;4995758;28;20129;-66
2021/12/16 06:12:57;;;;;;;11.77;3.35;;;19.50;99.90;;;;;;4986484;28;20173;-67
2021/12/16 06:26:52;;;;;;;15.45;3.63;;;19.40;99.90;;;;;;4996169;28;20448;-66
2021/12/16 06:29:20;;;;;;;10.88;3.33;;;19.30;99.90;;;;;;4995897;28;20026;-65
2021/12/16 06:31:47;;;;;;;13.20;2.97;;;19.30;99.90;;;;;;4988832;28;20554;-65
2021/12/16 06:34:15;;;;;;;15.13;3.88;;;19.40;99.90;;;;;;4995666;28;20467;-65
2021/12/16 06:36:42;;;;;;;14.70;2.72;;;19.30;99.90;;;;;;4995977;28;20041;-65
2021/12/16 06:39:09;;;;;;;11.63;2.25;;;19.30;99.90;;;;;;4996838;28;20511;-65
2021/12/16 06:41:38;;;;;;;8.82;2.30;;;19.30;99.90;;;;;;4996727;28;20031;-64
2021/12/16 06:44:16;;;;;;;13.30;2.78;;;19.20;99.90;;;;;;4995999;28;20038;-65
2021/12/16 06:46:45;;;;;;;10.55;3.20;;;19.20;99.90;;;;;;4995090;28;20044;-65
2021/12/16 06:49:16;;;;;;;21.17;3.28;;;19.20;99.90;;;;;;4995910;28;20026;-64
2021/12/16 06:51:57;;;;;;;9.55;2.35;;;19.20;99.90;;;;;;4996645;28;20547;-65
2021/12/16 06:54:29;;;;;;;17.48;2.95;;;19.30;99.90;;;;;;4996443;28;20026;-65
2021/12/16 06:57:15;;;;;;;11.13;3.45;;;19.30;99.90;;;;;;4996192;28;20037;-66
2021/12/16 06:59:53;;;;;;;16.40;2.63;;;19.30;99.90;;;;;;4996286;28;20530;-64
2021/12/16 07:02:44;;;;;;;14.57;2.72;;;19.20;99.90;;;;;;4995559;28;20054;-65
2021/12/16 07:05:14;;;;;;;10.75;2.80;;;19.20;99.90;;;;;;4995856;28;20046;-65
2021/12/16 07:07:42;;;;;;;13.98;2.42;;;19.20;99.90;;;;;;4995948;28;20475;-65
2021/12/16 07:10:11;;;;;;;8.65;2.63;;;19.10;99.90;;;;;;4996062;28;20034;-64
2021/12/16 07:12:46;;;;;;;11.80;2.22;;;19.20;99.90;;;;;;4987745;28;20114;-65
2021/12/16 07:15:16;;;;;;;9.75;2.90;;;19.10;99.90;;;;;;4979397;28;20022;-65
2021/12/16 07:17:44;;;;;;;13.60;2.67;;;19.00;99.90;;;;;;4991772;28;20030;-65
2021/12/16 07:20:14;;;;;;;13.75;2.45;;;18.90;99.90;;;;;;4993658;28;20082;-65
2021/12/16 07:22:41;;;;;;;19.10;3.05;;;18.90;99.90;;;;;;4992608;28;20038;-64
2021/12/16 07:25:09;;;;;;;11.57;2.58;;;18.90;99.90;;;;;;4993443;28;20495;-64
2021/12/16 07:27:37;;;;;;;17.25;2.72;;;19.00;99.90;;;;;;4994882;28;20030;-65
2021/12/16 07:30:13;;;;;;;15.65;3.53;;;19.00;99.90;;;;;;4995308;28;20030;-66
2021/12/16 07:32:41;;;;;;;19.92;2.50;;;19.00;99.90;;;;;;4995506;28;20472;-65
2021/12/16 07:35:12;;;;;;;19.63;3.75;;;19.00;99.90;;;;;;4995505;28;20032;-64
2021/12/16 07:37:40;;;;;;;8.23;2.30;;;18.90;99.90;;;;;;4995304;28;20078;-65
2021/12/16 07:40:09;;;;;;;11.15;2.88;;;19.00;99.90;;;;;;4995410;28;20479;-65
2021/12/16 07:42:59;;;;;;;12.15;2.95;;;18.90;99.90;;;;;;4994009;28;20045;-64
2021/12/16 07:45:29;;;;;;;13.98;2.20;;;18.90;99.90;;;;;;4995597;28;20026;-65
2021/12/16 07:47:56;;;;;;;6.18;2.22;;;18.90;99.90;;;;;;4995515;28;20383;-65
2021/12/16 07:50:24;;;;;;;8.38;3.20;;;18.90;99.90;;;;;;4995463;28;20026;-65
2021/12/16 07:52:52;;;;;;;13.52;2.83;;;18.90;99.90;;;;;;4995005;28;20046;-64
2021/12/16 07:55:23;;;;;;;10.35;2.53;;;18.90;99.90;;;;;;4994329;28;20118;-65
2021/12/16 07:57:50;;;;;;;12.55;2.40;;;19.00;99.90;;;;;;4993880;28;20031;-65
2021/12/16 08:00:22;;;;;;;17.75;2.15;;;18.90;99.90;;;;;;4993264;28;20559;-65
2021/12/16 08:02:50;;;;;;;9.93;2.85;;;18.90;99.90;;;;;;4993078;28;20419;-65
2021/12/16 08:05:21;;;;;;;10.60;2.55;;;18.90;99.90;;;;;;4992705;28;20293;-65
2021/12/16 08:07:49;;;;;;;9.93;2.28;;;18.80;99.90;;;;;;4993412;28;20031;-65
2021/12/16 08:10:20;;;;;;;17.33;3.20;;;18.80;99.90;;;;;;4992538;28;20018;-65
2021/12/16 08:12:49;;;;;;;10.32;2.60;;;18.80;99.90;;;;;;4993389;28;20039;-65
2021/12/16 08:15:18;;;;;;;15.93;2.90;;;18.80;99.90;;;;;;4993338;28;20057;-65
2021/12/16 08:17:46;;;;;;;4.38;1.73;;;18.80;99.90;;;;;;4992671;28;20023;-65
2021/12/16 08:20:18;;;;;;;10.32;1.35;;;18.80;99.90;;;;;;4993339;28;20023;-64
2021/12/16 08:22:51;;;;;;;11.68;2.70;;;18.80;99.90;;;;;;4992795;28;20439;-64
2021/12/16 08:25:21;;;;;;;8.38;1.80;;;18.80;99.90;;;;;;4992996;28;20015;-64
2021/12/16 08:27:49;;;;;;;6.38;1.98;;;18.90;99.90;;;;;;4993384;28;20117;-64
2021/12/16 08:30:20;;;;;;;10.23;2.58;;;18.80;99.90;;;;;;4992945;28;20026;-65
2021/12/16 08:32:48;;;;;;;13.90;1.95;;;18.80;99.90;;;;;;4993214;28;20109;-64
2021/12/16 08:35:16;;;;;;;12.32;2.40;;;18.80;99.90;;;;;;4993022;28;20442;-64
2021/12/16 08:37:44;;;;;;;8.10;1.83;;;18.80;99.90;;;;;;4993051;28;20491;-65
2021/12/16 08:40:21;;;;;;;7.97;2.58;;;18.70;99.90;;;;;;4992766;28;20019;-65
2021/12/16 08:42:50;;;;;;;15.77;3.30;;;18.70;99.90;;;;;;4992129;28;20074;-66
2021/12/16 08:45:31;;;;;;;13.50;2.75;;;18.70;99.90;;;;;;4990724;28;20410;-64
2021/12/16 08:48:00;;;;;;;9.55;2.05;;;18.70;99.90;;;;;;4992282;28;20026;-64
2021/12/16 08:50:33;;;;;;;10.93;1.98;;;18.70;99.90;;;;;;4992022;28;20022;-65
2021/12/16 08:53:01;;;;;;;11.30;2.70;;;18.70;99.90;;;;;;4992078;28;20029;-65
2021/12/16 08:55:32;;;;;;;9.90;2.22;;;18.80;99.90;;;;;;4992515;28;20034;-65
2021/12/16 08:58:01;;;;;;;8.23;2.72;;;18.70;99.90;;;;;;4991191;28;20014;-65
2021/12/16 09:00:34;;;;;;;8.77;1.85;;;18.70;99.90;;;;;;4993783;28;20080;-65
2021/12/16 09:03:02;;;;;;;8.93;1.73;;;18.70;99.90;;;;;;4992515;28;20042;-65
2021/12/16 09:05:32;;;;;;;15.43;2.53;;;18.70;99.90;;;;;;4992984;28;20379;-65
2021/12/16 09:08:00;;;;;;;8.35;2.85;;;18.70;99.90;;;;;;4992704;28;20042;-65
2021/12/16 09:10:33;;;;;;;13.25;2.15;;;18.80;99.90;;;;;;4992411;28;20024;-64
2021/12/16 09:13:05;;;;;;;5.68;1.90;;;18.70;99.90;;;;;;4992694;28;20587;-64
2021/12/16 09:15:35;;;;;;;14.05;2.70;;;18.70;99.90;;;;;;4992701;28;20030;-65
2021/12/16 09:18:05;;;;;;;8.73;2.95;;;18.70;99.90;;;;;;4992621;28;20093;-64
2021/12/16 09:20:34;;;;;;;8.63;2.30;;;18.70;99.90;;;;;;4991085;28;20026;-65
2021/12/16 09:23:02;;;;;;;6.20;1.98;;;18.80;99.90;;;;;;4990758;28;20092;-65
2021/12/16 09:25:30;;;;;;;10.07;2.67;;;18.80;99.90;;;;;;4991746;28;20025;-64
2021/12/16 09:27:58;;;;;;;13.10;2.40;;;18.80;99.90;;;;;;4987060;28;20036;-65
2021/12/16 09:30:27;;;;;;;15.48;2.30;;;18.80;99.90;;;;;;4991197;28;20026;-64
2021/12/16 09:32:59;;;;;;;3.10;1.60;;;18.70;99.90;;;;;;4990576;28;20053;-65
2021/12/16 09:35:31;;;;;;;9.05;1.63;;;18.70;99.90;;;;;;4991259;28;20026;-65
2021/12/16 09:38:00;;;;;;;6.68;1.95;;;18.70;99.90;;;;;;4992127;28;20057;-65
2021/12/16 09:40:30;;;;;;;8.02;2.10;;;18.70;99.90;;;;;;4993399;28;20101;-65
2021/12/16 09:42:58;;;;;;;9.90;2.05;;;18.70;99.90;;;;;;4991685;28;20038;-65
2021/12/16 09:45:26;;;;;;;10.68;2.38;;;18.60;99.90;;;;;;4991191;28;20476;-65
2021/12/16 09:47:54;;;;;;;12.20;2.33;;;18.60;99.90;;;;;;4991484;28;20034;-65
2021/12/16 09:50:26;;;;;;;7.30;2.20;;;18.60;99.90;;;;;;4988766;28;20019;-65
2021/12/16 09:52:54;;;;;;;8.13;2.45;;;18.60;99.90;;;;;;4992259;28;20526;-64
2021/12/16 09:55:22;;;;;;;8.15;2.78;;;18.60;99.90;;;;;;4984311;28;20110;-64
2021/12/16 09:57:51;;;;;;;7.95;2.60;;;18.60;99.90;;;;;;4982430;28;20059;-65
2021/12/16 10:00:23;;;;;;;7.88;2.28;;;18.60;99.90;;;;;;4982432;28;20014;-64
2021/12/16 10:02:54;;;;;;;7.75;2.00;;;18.60;99.90;;;;;;4997756;28;20054;-65
2021/12/16 10:05:22;;;;;;;10.40;2.60;;;18.60;99.90;;;;;;4993308;28;20082;-64
2021/12/16 10:07:51;;;;;;;8.55;2.58;;;18.50;99.90;;;;;;4993130;28;20483;-64
2021/12/16 10:10:24;;;;;;;13.10;2.70;;;18.30;99.90;;;;;;4992945;28;20054;-64
2021/12/16 10:12:56;;;;;;;13.13;2.63;;;18.30;99.90;;;;;;4993028;28;20034;-63
2021/12/16 10:18:21;;;;;;;5.57;2.15;;;18.10;99.90;;;;;;4993055;28;20033;-64
2021/12/16 10:21:09;;;;;;;12.32;2.22;;;18.10;99.90;;;;;;4991481;28;20070;-65
2021/12/16 10:23:44;;;;;;;9.93;2.88;;;17.90;99.90;;;;;;4992329;28;20095;-65
2021/12/16 10:26:20;;;;;;;13.27;2.85;;;17.90;99.90;;;;;;4992937;28;20134;-64
2021/12/16 10:28:50;;;;;;;7.18;2.17;;;17.90;99.90;;;;;;4991374;28;20033;-65
2021/12/16 10:31:34;;;;;;;7.15;2.33;;;17.90;99.90;;;;;;4992911;28;20033;-65
2021/12/16 10:34:07;;;;;;;7.78;2.17;;;17.90;99.90;;;;;;4986671;28;20026;-65
2021/12/16 10:36:45;;;;;;;11.30;2.92;;;17.90;99.90;;;;;;4987577;28;20031;-64
2021/12/16 10:39:22;;;;;;;7.05;2.30;;;17.90;99.90;;;;;;4995258;28;20018;-64
2021/12/16 10:42:06;;;;;;;7.30;2.05;;;17.80;99.90;;;;;;4994701;28;20050;-64
2021/12/16 10:44:38;;;;;;;6.38;2.20;;;17.80;99.90;;;;;;4995339;28;20030;-64
2021/12/16 10:47:12;;;;;;;10.68;2.03;;;17.80;99.90;;;;;;4994198;28;20029;-63
2021/12/16 10:49:51;;;;;;;6.25;2.53;;;17.80;99.90;;;;;;4996121;28;20029;-62
2021/12/16 10:52:31;;;;;;;8.25;2.50;;;17.80;99.90;;;;;;4996053;28;20022;-64
2021/12/16 10:55:00;;;;;;;9.85;3.42;;;17.80;99.90;;;;;;4995980;28;20026;-64
2021/12/16 10:57:31;;;;;;;4.25;2.15;;;17.90;99.90;;;;;;4995972;28;20034;-63
2021/12/16 11:00:06;;;;;;;8.48;2.05;;;17.80;99.90;;;;;;4995886;28;20029;-63
2021/12/16 11:02:37;;;;;;;9.07;2.10;;;17.70;99.90;;;;;;4995549;28;20054;-63
2021/12/16 11:05:21;;;;;;;7.95;1.77;;;17.80;99.90;;;;;;4993864;28;20054;-64
2021/12/16 11:07:55;;;;;;;8.63;1.83;;;17.80;99.90;;;;;;4994353;28;20391;-63
2021/12/16 11:10:36;;;;;;;6.10;2.05;;;17.80;99.90;;;;;;4986777;28;20019;-63
2021/12/16 11:13:09;;;;;;;10.68;2.13;;;17.80;99.90;;;;;;4995645;28;20050;-63
2021/12/16 11:15:41;;;;;;;5.93;1.85;;;17.80;99.90;;;;;;4995773;28;20019;-63
2021/12/16 11:18:13;;;;;;;15.20;2.22;;;17.90;99.90;;;;;;4994361;28;20427;-62
2021/12/16 11:20:43;;;;;;;6.78;1.88;;;17.90;99.90;;;;;;4995519;28;20113;-63
2021/12/16 11:23:17;;;;;;;8.32;1.85;;;17.90;99.90;;;;;;4995193;28;20034;-63
2021/12/16 11:25:56;;;;;;;7.82;2.28;;;18.00;99.90;;;;;;4989618;28;20034;-64
2021/12/16 11:28:35;;;;;;;6.68;2.05;;;18.00;99.90;;;;;;4993117;28;20053;-65
2021/12/16 11:31:08;;;;;;;9.75;2.63;;;18.00;99.90;;;;;;4994174;28;20476;-63
2021/12/16 11:33:40;;;;;;;5.95;1.80;;;18.00;99.90;;;;;;4995112;28;20083;-64
2021/12/16 11:36:18;;;;;;;8.60;2.17;;;18.10;99.90;;;;;;4995393;28;20058;-64
2021/12/16 11:38:51;;;;;;;9.07;2.58;;;18.10;99.90;;;;;;4993242;28;20118;-64
2021/12/16 11:41:30;;;;;;;8.55;1.35;;;18.10;99.90;;;;;;4995163;28;20565;-64
2021/12/16 11:44:07;;;;;;;8.32;2.22;;;18.10;99.90;;;;;;4994365;28;20034;-63
2021/12/16 11:46:43;;;;;;;10.25;2.08;;;18.10;99.90;;;;;;4994951;28;20436;-64
2021/12/16 11:49:14;;;;;;;5.03;1.73;;;18.10;99.90;;;;;;4993751;28;20050;-64
2021/12/16 11:51:52;;;;;;;7.57;1.88;;;18.10;99.90;;;;;;4995055;28;20101;-66
2021/12/16 11:54:26;;;;;;;7.50;1.95;;;18.00;99.90;;;;;;4994858;28;20468;-64
2021/12/16 11:57:00;;;;;;;5.40;1.75;;;18.00;99.90;;;;;;4994929;28;20058;-64
2021/12/16 11:59:59;;;;;;;4.45;1.90;;;18.00;99.90;;;;;;4992957;28;20023;-64
2021/12/16 12:02:37;;;;;;;11.00;2.05;;;18.00;99.90;;;;;;4994312;28;20046;-64
2021/12/16 12:05:26;;;;;;;15.27;2.45;;;18.00;99.90;;;;;;4992584;28;20084;-64
2021/12/16 12:08:21;;;;;;;13.05;2.08;;;18.10;99.90;;;;;;4993619;28;20069;-65
2021/12/16 12:11:00;;;;;;;9.05;2.65;;;18.00;99.90;;;;;;4994668;28;20050;-63
2021/12/16 12:13:35;;;;;;;5.05;1.70;;;18.10;99.90;;;;;;4984942;28;20529;-63
2021/12/16 12:16:14;;;;;;;7.82;1.65;;;18.00;99.90;;;;;;4992074;28;20391;-64
2021/12/16 12:18:58;;;;;;;4.65;1.45;;;18.00;99.90;;;;;;4992093;28;20034;-64
2021/12/16 12:21:39;;;;;;;9.23;2.67;;;18.00;99.90;;;;;;4985067;28;20026;-64
2021/12/16 12:24:16;;;;;;;5.97;1.92;;;18.10;99.90;;;;;;4994264;28;20130;-63
2021/12/16 12:26:52;;;;;;;10.82;2.25;;;18.10;99.90;;;;;;4992109;28;20022;-62
2021/12/16 12:29:30;;;;;;;3.63;1.63;;;18.10;99.90;;;;;;4994321;28;20030;-64
2021/12/16 12:32:18;;;;;;;4.35;1.58;;;18.10;99.90;;;;;;4994102;28;20427;-64
2021/12/16 12:34:51;;;;;;;4.38;2.17;;;18.10;99.90;;;;;;4992110;28;20383;-64
2021/12/16 12:37:21;;;;;;;8.27;2.15;;;18.00;99.90;;;;;;4994096;28;20022;-63
2021/12/16 12:39:54;;;;;;;7.47;2.17;;;18.00;99.90;;;;;;4994062;28;20100;-64
2021/12/16 12:42:22;;;;;;;8.20;2.05;;;18.00;99.90;;;;;;4988342;28;20387;-64
2021/12/16 12:44:51;;;;;;;5.60;1.80;;;18.00;99.90;;;;;;4993999;28;20029;-64
2021/12/16 12:47:27;;;;;;;6.55;1.63;;;18.00;99.90;;;;;;4993811;28;20041;-64
2021/12/16 12:50:18;;;;;;;8.40;2.22;;;18.00;99.90;;;;;;4994039;28;20018;-65
2021/12/16 12:52:50;;;;;;;8.05;1.85;;;18.00;99.90;;;;;;4989048;28;20038;-64
2021/12/16 12:55:28;;;;;;;10.05;2.67;;;18.00;99.90;;;;;;4993761;28;20022;-64
2021/12/16 12:58:07;;;;;;;8.18;1.88;;;18.00;99.90;;;;;;4993933;28;21037;-64
2021/12/16 13:00:53;;;;;;;9.63;2.33;;;18.00;99.90;;;;;;4992872;28;20025;-64
2021/12/16 13:03:29;;;;;;;9.77;3.15;;;18.00;99.90;;;;;;4993330;28;20042;-65
2021/12/16 13:06:06;;;;;;;16.08;2.22;;;18.00;99.90;;;;;;4993775;28;20034;-64
2021/12/16 13:08:39;;;;;;;6.75;2.88;;;18.00;99.90;;;;;;4993696;28;20424;-64
2021/12/16 13:11:11;;;;;;;10.25;1.92;;;18.00;99.90;;;;;;4990885;28;20080;-64
2021/12/16 13:14:37;;;;;;;4.15;1.40;;;18.00;99.90;;;;;;4990309;28;20038;-63
2021/12/16 13:26:07;;;;;;;5.03;2.05;;;18.00;99.90;;;;;;4991990;28;20045;-64
2021/12/16 13:28:51;;;;;;;9.40;2.50;;;18.00;99.90;;;;;;4991991;28;20038;-63
2021/12/16 13:31:24;;;;;;;8.70;2.10;;;18.00;99.90;;;;;;4990639;28;20018;-65
2021/12/16 13:33:57;;;;;;;10.52;1.70;;;17.90;99.90;;;;;;4993422;28;20105;-65
2021/12/16 13:37:05;;;;;;;10.43;2.42;;;17.90;99.90;;;;;;4988602;28;20018;-65
2021/12/16 13:39:40;;;;;;;14.43;2.88;;;17.80;99.90;;;;;;4987464;28;20514;-64
2021/12/16 13:42:13;;;;;;;15.27;2.07;;;17.70;99.90;;;;;;4991057;28;20495;-64
2021/12/16 13:44:48;;;;;;;13.68;2.28;;;17.60;99.90;;;;;;4993787;28;20035;-65
2021/12/16 13:47:32;;;;;;;8.10;1.88;;;17.60;99.90;;;;;;4993816;28;20027;-65
2021/12/16 14:01:52;;;;;;;13.75;2.67;;;17.40;99.90;;;;;;4993666;28;20411;-64
2021/12/16 14:04:39;;;;;;;11.52;3.25;;;17.40;99.90;;;;;;4993787;28;20180;-63
2021/12/16 14:16:35;;;;;;;10.63;1.80;;;17.40;99.90;;;;;;4974086;28;20514;-61
2021/12/16 14:25:08;;;;;;;12.13;3.00;;;17.40;99.90;;;;;;4997164;28;20479;-64
2021/12/16 14:46:44;;;;;;;9.82;2.33;;;17.60;99.90;;;;;;4996881;28;20065;-64
2021/12/16 14:49:12;;;;;;;13.80;1.83;;;17.60;99.90;;;;;;4996915;28;20488;-62
2021/12/16 14:51:40;;;;;;;7.63;2.60;;;17.60;99.90;;;;;;4996513;28;20125;-63
2021/12/16 14:54:08;;;;;;;13.93;2.75;;;17.60;99.90;;;;;;4996519;28;20034;-62
2021/12/16 14:56:38;;;;;;;7.93;2.28;;;17.50;99.90;;;;;;4996365;28;20035;-64
2021/12/16 14:59:13;;;;;;;13.35;2.25;;;17.50;99.90;;;;;;4997189;28;20118;-64
2021/12/16 15:01:44;;;;;;;10.13;2.53;;;17.50;99.90;;;;;;4996187;28;20086;-63
2021/12/16 15:04:16;;;;;;;9.80;2.17;;;17.60;99.90;;;;;;4996522;28;20061;-63
2021/12/16 15:06:51;;;;;;;7.57;1.92;;;17.50;99.90;;;;;;4996311;28;20472;-63
2021/12/16 15:09:26;;;;;;;13.82;2.00;;;17.50;99.90;;;;;;4996456;28;20030;-63
2021/12/16 15:12:07;;;;;;;8.98;2.10;;;17.60;99.90;;;;;;4996194;28;20369;-64
2021/12/16 15:17:15;;;;;;;8.18;2.28;;;17.50;99.90;;;;;;4995634;28;20022;-63
2021/12/16 15:40:14;;;;;;;14.45;2.33;;;17.50;99.90;;;;;;4995864;28;20308;-64
2021/12/16 15:45:23;;;;;;;12.90;2.40;;;17.40;99.90;;;;;;4995841;28;20015;-62
2021/12/16 15:48:25;;;;;;;9.38;2.35;;;17.50;99.90;;;;;;4995678;28;20092;-64
2021/12/16 15:51:09;;;;;;;7.05;1.85;;;17.50;99.90;;;;;;4995515;28;20030;-63
2021/12/16 15:53:44;;;;;;;8.10;2.40;;;17.50;99.90;;;;;;4995701;28;20022;-64
2021/12/16 15:56:22;;;;;;;8.02;2.20;;;17.50;99.90;;;;;;4995520;28;20034;-62
2021/12/16 15:58:56;;;;;;;9.18;2.67;;;17.50;99.90;;;;;;4995441;28;20030;-63
2021/12/16 16:01:42;;;;;;;11.23;1.95;;;17.50;99.90;;;;;;4995250;28;20076;-64
2021/12/16 16:04:20;;;;;;;12.05;2.70;;;17.50;99.90;;;;;;4995553;28;20035;-63
2021/12/16 16:06:53;;;;;;;9.68;2.95;;;17.40;99.90;;;;;;4995313;28;20034;-64
2021/12/16 16:09:20;;;;;;;8.45;2.35;;;17.40;99.90;;;;;;4995265;28;20072;-62
2021/12/16 16:11:52;;;;;;;8.48;2.13;;;17.40;99.90;;;;;;4995192;28;20030;-64
2021/12/16 16:14:23;;;;;;;12.57;2.60;;;17.40;99.90;;;;;;4995326;28;20019;-64
2021/12/16 16:16:56;;;;;;;5.97;2.28;;;17.40;99.90;;;;;;4995042;28;20109;-62
2021/12/16 16:19:29;;;;;;;7.40;2.50;;;17.40;99.90;;;;;;4995054;28;20042;-64
2021/12/16 16:21:59;;;;;;;11.07;3.00;;;17.40;99.90;;;;;;4994813;28;20038;-64
2021/12/16 16:24:32;;;;;;;12.77;2.90;;;17.20;99.90;;;;;;4995024;28;20475;-64
2021/12/16 16:27:03;;;;;;;10.90;2.40;;;17.20;99.90;;;;;;4995027;28;20030;-63
2021/12/16 16:29:33;;;;;;;13.35;3.00;;;17.30;99.90;;;;;;4994836;28;20022;-62
2021/12/16 16:32:02;;;;;;;11.40;3.03;;;17.30;99.90;;;;;;4994415;28;20021;-63
2021/12/16 16:34:33;;;;;;;9.65;2.67;;;17.30;99.90;;;;;;4994781;28;20030;-64
2021/12/16 16:37:05;;;;;;;6.00;2.70;;;17.30;99.90;;;;;;4994735;28;20101;-64
2021/12/16 16:39:38;;;;;;;12.10;2.80;;;17.30;99.90;;;;;;4994730;28;20030;-64
2021/12/16 16:42:09;;;;;;;9.73;2.30;;;17.30;99.90;;;;;;4994394;28;20042;-63
2021/12/16 16:44:36;;;;;;;9.98;2.95;;;17.30;99.90;;;;;;4994628;28;20030;-64
2021/12/16 16:47:14;;;;;;;8.48;2.63;;;17.20;99.90;;;;;;4994614;28;20026;-63
2021/12/16 16:49:49;;;;;;;11.98;3.20;;;17.20;99.90;;;;;;4980871;28;20118;-63
2021/12/16 16:52:28;;;;;;;10.82;3.08;;;17.20;99.90;;;;;;4985011;28;20492;-62
2021/12/16 16:55:15;;;;;;;9.00;2.53;;;17.20;99.90;;;;;;4993020;28;20034;-64
2021/12/16 16:58:17;;;;;;;10.23;2.55;;;17.20;99.90;;;;;;4993790;28;20026;-63